createdAt,value
2023-08-12T00:00:46.392Z,6.50
2023-08-12T00:03:16.776Z,6.75
2023-08-12T00:05:47.102Z,6.35
2023-08-12T00:08:20.064Z,7.63
2023-08-12T00:10:50.437Z,6.15
2023-08-12T00:13:22.196Z,7.43
2023-08-12T00:15:52.599Z,6.70
2023-08-12T00:18:22.922Z,6.70
2023-08-12T00:20:53.364Z,6.43
2023-08-12T00:23:26.328Z,6.82
2023-08-12T00:25:56.712Z,7.30
2023-08-12T00:28:27.012Z,6.68
2023-08-12T00:30:57.475Z,6.45
2023-08-12T00:33:27.878Z,6.80
2023-08-12T00:35:58.281Z,7.20
2023-08-12T00:38:32.181Z,7.30
2023-08-12T00:41:02.520Z,7.28
2023-08-12T00:43:32.836Z,8.68
2023-08-12T00:46:03.973Z,8.02
2023-08-12T00:48:34.362Z,8.27
2023-08-12T00:51:05.270Z,7.25
2023-08-12T00:53:38.629Z,6.95
2023-08-12T00:56:09.216Z,7.35
2023-08-12T00:58:39.752Z,7.70
2023-08-12T01:01:10.238Z,6.43
2023-08-12T01:03:41.826Z,7.18
2023-08-12T01:06:12.401Z,7.28
2023-08-12T01:08:45.588Z,6.18
2023-08-12T01:11:27.342Z,6.50
2023-08-12T01:14:04.875Z,6.10
2023-08-12T01:16:39.310Z,6.47
2023-08-12T01:19:15.130Z,5.78
2023-08-12T01:21:48.557Z,6.60
2023-08-12T01:24:24.491Z,5.50
2023-08-12T01:26:56.851Z,6.07
2023-08-12T01:29:27.424Z,5.75
2023-08-12T01:32:05.409Z,5.30
2023-08-12T01:34:47.242Z,5.43
2023-08-12T01:37:29.168Z,5.35
2023-08-12T01:40:05.767Z,4.82
2023-08-12T01:42:38.580Z,4.80
2023-08-12T01:45:10.993Z,4.60
2023-08-12T01:47:41.793Z,4.47
2023-08-12T01:50:13.660Z,4.88
2023-08-12T01:52:44.046Z,4.95
2023-08-12T01:55:16.955Z,4.60
2023-08-12T01:57:47.386Z,4.57
2023-08-12T02:00:18.207Z,4.57
2023-08-12T02:02:50.270Z,4.25
2023-08-12T02:05:20.611Z,4.88
2023-08-12T02:07:51.050Z,5.25
2023-08-12T02:10:24.023Z,4.63
2023-08-12T02:12:54.438Z,4.68
2023-08-12T02:15:24.805Z,4.72
2023-08-12T02:17:55.247Z,4.30
2023-08-12T02:20:25.563Z,4.65
2023-08-12T02:22:55.901Z,4.47
2023-08-12T02:25:28.920Z,4.88
2023-08-12T02:27:59.259Z,5.00
2023-08-12T02:30:29.637Z,4.43
2023-08-12T02:33:00.266Z,5.00
2023-08-12T02:35:30.651Z,4.30
2023-08-12T02:38:01.011Z,4.38
2023-08-12T02:40:33.931Z,4.40
2023-08-12T02:43:04.296Z,4.70
2023-08-12T02:45:34.660Z,4.93
2023-08-12T02:48:05.040Z,5.22
2023-08-12T02:50:35.381Z,4.10
2023-08-12T02:53:06.770Z,4.40
2023-08-12T02:55:39.956Z,4.72
2023-08-12T02:58:10.387Z,5.07
2023-08-12T03:00:40.755Z,4.53
2023-08-12T03:03:11.148Z,4.78
2023-08-12T03:05:42.264Z,4.72
2023-08-12T03:08:12.592Z,5.22
2023-08-12T03:10:45.781Z,4.60
2023-08-12T03:13:16.158Z,4.47
2023-08-12T03:15:46.529Z,4.70
2023-08-12T03:18:16.853Z,5.28
2023-08-12T03:20:47.223Z,4.45
2023-08-12T03:23:18.855Z,5.03
2023-08-12T03:25:52.309Z,5.00
2023-08-12T03:28:22.634Z,5.20
2023-08-12T03:30:56.124Z,4.78
2023-08-12T03:33:26.690Z,4.28
2023-08-12T03:35:56.989Z,4.85
2023-08-12T03:38:27.373Z,4.30
2023-08-12T03:41:00.331Z,4.65
2023-08-12T03:43:30.627Z,4.60
2023-08-12T03:46:00.977Z,4.38
2023-08-12T03:48:31.295Z,4.72
2023-08-12T03:51:01.655Z,4.80
2023-08-12T03:53:32.036Z,4.65
2023-08-12T03:56:05.463Z,4.57
2023-08-12T03:58:35.784Z,4.50
2023-08-12T04:01:06.121Z,4.63
2023-08-12T04:03:36.564Z,4.38
2023-08-12T04:06:07.131Z,4.88
2023-08-12T04:08:37.508Z,4.28
2023-08-12T04:11:10.511Z,4.30
2023-08-12T04:13:40.832Z,4.53
2023-08-12T04:16:11.232Z,4.85
2023-08-12T04:18:41.599Z,4.20
2023-08-12T04:21:12.412Z,4.60
2023-08-12T04:23:42.765Z,4.43
2023-08-12T04:26:15.679Z,4.85
2023-08-12T04:28:48.877Z,3.85
2023-08-12T04:31:19.207Z,4.60
2023-08-12T04:33:50.870Z,4.57
2023-08-12T04:36:21.150Z,4.45
2023-08-12T04:38:51.492Z,4.40
2023-08-12T04:41:25.381Z,5.20
2023-08-12T04:43:55.710Z,4.20
2023-08-12T04:46:26.051Z,4.65
2023-08-12T04:48:56.519Z,4.65
2023-08-12T04:51:26.911Z,4.63
2023-08-12T04:53:57.226Z,4.25
2023-08-12T04:56:30.409Z,4.85
2023-08-12T04:59:00.942Z,5.07
2023-08-12T05:01:31.339Z,4.22
2023-08-12T05:04:01.752Z,4.53
2023-08-12T05:06:32.155Z,4.78
2023-08-12T05:09:02.486Z,4.88
2023-08-12T05:11:35.473Z,4.22
2023-08-12T05:14:05.859Z,4.35
2023-08-12T05:16:36.390Z,4.07
2023-08-12T05:19:07.074Z,4.78
2023-08-12T05:21:37.477Z,4.43
2023-08-12T05:24:08.735Z,4.75
2023-08-12T05:26:41.730Z,4.57
2023-08-12T05:29:12.032Z,4.60
2023-08-12T05:31:42.390Z,4.07
2023-08-12T05:34:12.900Z,4.90
2023-08-12T05:36:43.230Z,4.82
2023-08-12T05:39:13.613Z,4.72
2023-08-12T05:41:47.708Z,4.53
2023-08-12T05:44:18.708Z,5.10
2023-08-12T05:46:49.081Z,4.25
2023-08-12T05:49:19.417Z,4.50
2023-08-12T05:51:49.760Z,4.20
2023-08-12T05:54:20.143Z,4.55
2023-08-12T05:56:53.071Z,4.50
2023-08-12T05:59:23.534Z,4.95
2023-08-12T06:01:53.899Z,4.43
2023-08-12T06:04:24.387Z,4.20
2023-08-12T06:06:54.761Z,4.95
2023-08-12T06:09:26.004Z,4.40
2023-08-12T06:11:58.961Z,4.70
2023-08-12T06:14:29.356Z,4.57
2023-08-12T06:16:59.654Z,3.97
2023-08-12T06:19:30.005Z,4.10
2023-08-12T06:22:00.310Z,4.95
2023-08-12T06:24:30.729Z,4.85
2023-08-12T06:27:05.178Z,4.03
2023-08-12T06:29:35.585Z,4.68
2023-08-12T06:32:05.917Z,4.60
2023-08-12T06:34:36.303Z,4.43
2023-08-12T06:37:06.732Z,4.07
2023-08-12T06:39:37.056Z,4.72
2023-08-12T06:42:10.944Z,4.72
2023-08-12T06:44:41.569Z,4.43
2023-08-12T06:47:11.871Z,4.03
2023-08-12T06:49:42.160Z,4.38
2023-08-12T06:52:10.172Z,3.70
2023-08-12T06:54:40.723Z,4.18
2023-08-12T06:57:13.705Z,4.40
2023-08-12T06:59:44.068Z,3.65
2023-08-12T07:02:14.779Z,4.10
2023-08-12T07:04:45.340Z,4.15
2023-08-12T07:07:15.757Z,4.05
2023-08-12T07:09:46.089Z,4.63
2023-08-12T07:12:19.002Z,4.15
2023-08-12T07:14:49.311Z,4.63
2023-08-12T07:17:19.618Z,4.60
2023-08-12T07:19:50.009Z,4.20
2023-08-12T07:22:21.802Z,4.30
2023-08-12T07:24:53.894Z,3.90
2023-08-12T07:27:26.908Z,4.43
2023-08-12T07:29:57.493Z,4.20
2023-08-12T07:32:27.854Z,5.05
2023-08-12T07:34:58.234Z,5.07
2023-08-12T07:37:28.732Z,4.57
2023-08-12T07:39:59.070Z,3.95
2023-08-12T07:42:31.994Z,3.95
2023-08-12T07:45:02.535Z,4.50
2023-08-12T07:47:32.884Z,3.97
2023-08-12T07:50:03.238Z,4.15
2023-08-12T07:52:33.792Z,4.72
2023-08-12T07:55:04.152Z,3.47
2023-08-12T07:57:37.144Z,4.15
2023-08-12T08:00:09.420Z,4.15
2023-08-12T08:02:39.831Z,4.10
2023-08-12T08:05:11.732Z,3.80
2023-08-12T08:07:42.100Z,3.65
2023-08-12T08:10:14.073Z,4.00
2023-08-12T08:12:47.037Z,3.78
2023-08-12T08:15:17.402Z,4.13
2023-08-12T08:17:47.810Z,3.97
2023-08-12T08:20:18.383Z,3.38
2023-08-12T08:22:48.751Z,3.60
2023-08-12T08:25:19.114Z,3.55
2023-08-12T08:27:52.048Z,3.70
2023-08-12T08:30:24.195Z,3.35
2023-08-12T08:32:54.653Z,3.55
2023-08-12T08:35:25.123Z,3.28
2023-08-12T08:37:55.570Z,3.78
2023-08-12T08:40:26.030Z,3.53
2023-08-12T08:43:06.338Z,3.83
2023-08-12T08:45:37.596Z,3.90
2023-08-12T08:48:11.862Z,2.80
2023-08-12T08:50:44.149Z,3.80
2023-08-12T08:53:14.759Z,4.10
2023-08-12T08:55:46.137Z,3.42
2023-08-12T08:58:22.512Z,4.18
2023-08-12T09:00:54.668Z,3.40
2023-08-12T09:03:28.073Z,3.45
2023-08-12T09:06:00.556Z,3.05
2023-08-12T09:08:33.634Z,2.97
2023-08-12T09:11:04.716Z,3.35
2023-08-12T09:13:37.664Z,2.97
2023-08-12T09:16:08.395Z,3.20
2023-08-12T09:18:39.343Z,2.80
2023-08-12T09:21:10.317Z,3.33
2023-08-12T09:23:42.628Z,3.50
2023-08-12T09:26:19.377Z,3.05
2023-08-12T09:28:55.251Z,3.22
2023-08-12T09:31:30.873Z,3.03
2023-08-12T09:34:02.971Z,2.65
2023-08-12T09:36:35.562Z,2.72
2023-08-12T09:39:11.712Z,2.28
2023-08-12T09:41:42.866Z,2.63
2023-08-12T09:44:16.386Z,2.00
2023-08-12T09:46:46.724Z,1.73
2023-08-12T09:49:17.109Z,2.00
2023-08-12T09:51:47.755Z,1.83
2023-08-12T09:54:18.748Z,1.85
2023-08-12T09:56:52.792Z,1.63
2023-08-12T09:59:27.364Z,1.60
2023-08-12T10:01:58.104Z,2.08
2023-08-12T10:04:33.844Z,1.83
2023-08-12T10:07:05.621Z,1.65
2023-08-12T10:09:37.345Z,2.20
2023-08-12T10:12:10.802Z,2.00
2023-08-12T10:14:44.340Z,2.00
2023-08-12T10:17:17.728Z,1.98
2023-08-12T10:19:53.369Z,2.15
2023-08-12T10:22:24.223Z,2.70
2023-08-12T10:24:55.334Z,2.50
2023-08-12T10:27:25.794Z,1.88
2023-08-12T10:30:00.652Z,2.33
2023-08-12T10:32:31.170Z,2.20
2023-08-12T10:35:02.484Z,1.70
2023-08-12T10:37:37.245Z,1.75
2023-08-12T10:40:11.942Z,1.42
2023-08-12T10:42:46.222Z,1.80
2023-08-12T10:45:21.224Z,2.00
2023-08-12T10:48:19.582Z,2.22
2023-08-12T10:50:53.005Z,1.70
2023-08-12T10:53:31.126Z,1.80
2023-08-12T10:56:03.301Z,2.10
2023-08-12T10:58:42.088Z,1.90
2023-08-12T11:01:21.523Z,2.42
2023-08-12T11:03:55.124Z,2.28
2023-08-12T11:06:25.701Z,2.65
2023-08-12T11:08:57.507Z,2.20
2023-08-12T11:11:28.693Z,2.00
2023-08-12T11:14:00.899Z,2.30
2023-08-12T11:16:42.608Z,2.10
2023-08-12T11:19:13.176Z,2.05
2023-08-12T11:21:44.307Z,2.20
2023-08-12T11:24:15.019Z,2.55
2023-08-12T11:26:46.684Z,2.28
2023-08-12T11:29:18.545Z,1.90
2023-08-12T11:31:51.510Z,1.85
2023-08-12T11:34:22.005Z,1.98
2023-08-12T11:36:52.431Z,2.47
2023-08-12T11:39:22.790Z,2.58
2023-08-12T11:41:54.051Z,1.95
2023-08-12T11:44:26.850Z,1.92
2023-08-12T11:46:59.917Z,1.60
2023-08-12T11:49:30.264Z,1.60
2023-08-12T11:52:00.706Z,2.10
2023-08-12T11:54:32.250Z,2.15
2023-08-12T11:57:04.050Z,1.70
2023-08-12T11:59:35.330Z,1.90
2023-08-12T12:02:09.253Z,1.45
2023-08-12T12:04:39.602Z,1.30
2023-08-12T12:07:22.784Z,1.38
2023-08-12T12:09:56.349Z,1.30
2023-08-12T12:12:28.692Z,1.27
2023-08-12T12:15:00.647Z,1.15
2023-08-12T12:17:34.460Z,1.30
2023-08-12T12:20:06.937Z,1.15
2023-08-12T12:22:37.681Z,1.20
2023-08-12T12:25:12.756Z,1.00
2023-08-12T12:30:16.750Z,0.82
2023-08-12T12:32:50.172Z,1.00
2023-08-12T12:35:20.780Z,1.08
2023-08-12T12:37:51.143Z,1.13
2023-08-12T12:40:21.444Z,0.70
2023-08-12T12:42:52.041Z,0.85
2023-08-12T12:45:22.383Z,0.90
2023-08-12T12:47:55.484Z,0.85
2023-08-12T12:50:25.846Z,1.00
2023-08-12T12:52:56.172Z,0.95
2023-08-12T12:55:26.489Z,1.05
2023-08-12T12:57:56.851Z,0.90
2023-08-12T13:00:27.537Z,0.90
2023-08-12T13:03:00.584Z,1.05
2023-08-12T13:05:30.962Z,1.33
2023-08-12T13:08:01.482Z,1.33
2023-08-12T13:10:31.776Z,1.20
2023-08-12T13:13:02.145Z,1.45
2023-08-12T13:15:34.580Z,1.05
2023-08-12T13:18:09.772Z,1.10
2023-08-12T13:20:40.228Z,1.40
2023-08-12T13:23:10.931Z,1.20
2023-08-12T13:25:41.578Z,1.15
2023-08-12T13:28:12.200Z,1.10
2023-08-12T13:30:42.630Z,1.20
2023-08-12T13:33:15.767Z,0.90
2023-08-12T13:35:46.178Z,0.88
2023-08-12T13:38:16.540Z,0.90
2023-08-12T13:40:46.896Z,1.10
2023-08-12T13:43:17.432Z,0.80
2023-08-12T13:45:47.862Z,1.00
2023-08-12T13:48:20.868Z,0.82
2023-08-12T13:50:53.653Z,0.70
2023-08-12T13:53:25.228Z,0.80
2023-08-12T13:55:55.875Z,0.75
2023-08-12T13:58:26.326Z,0.70
2023-08-12T14:00:56.629Z,0.73
2023-08-12T14:03:29.967Z,0.40
2023-08-12T14:06:00.458Z,0.75
2023-08-12T14:08:30.903Z,0.68
2023-08-12T14:11:01.191Z,0.50
2023-08-12T14:13:31.572Z,0.60
2023-08-12T14:16:01.992Z,0.50
2023-08-12T14:18:35.044Z,0.40
2023-08-12T14:21:05.354Z,0.60
2023-08-12T14:23:35.791Z,0.60
2023-08-12T14:26:06.173Z,0.80
2023-08-12T14:28:36.562Z,0.50
2023-08-12T14:31:06.935Z,0.70
2023-08-12T14:33:40.045Z,0.50
2023-08-12T14:36:11.261Z,0.82
2023-08-12T14:38:41.583Z,0.88
2023-08-12T14:41:11.960Z,0.60
2023-08-12T14:43:42.657Z,0.52
2023-08-12T14:46:13.072Z,0.65
2023-08-12T14:48:46.183Z,0.60
2023-08-12T14:51:16.533Z,0.70
2023-08-12T14:53:48.735Z,0.55
2023-08-12T14:56:19.751Z,0.52
2023-08-12T14:58:50.220Z,0.60
2023-08-12T15:01:20.747Z,0.70
2023-08-12T15:03:53.918Z,0.60
2023-08-12T15:06:25.449Z,0.50
2023-08-12T15:08:55.929Z,0.77
2023-08-12T15:11:26.698Z,0.70
2023-08-12T15:13:57.049Z,0.75
2023-08-12T15:16:27.541Z,0.93
2023-08-12T15:19:00.502Z,0.98
2023-08-12T15:21:30.856Z,0.98
2023-08-12T15:24:01.204Z,0.75
2023-08-12T15:26:32.987Z,0.80
2023-08-12T15:29:03.486Z,0.85
2023-08-12T15:31:33.910Z,0.90
2023-08-12T15:34:07.461Z,1.13
2023-08-12T15:36:37.964Z,0.90
2023-08-12T15:39:08.761Z,1.10
2023-08-12T15:41:44.978Z,0.80
2023-08-12T15:44:16.049Z,1.00
2023-08-12T15:46:46.950Z,0.82
2023-08-12T15:49:20.096Z,1.30
2023-08-12T15:51:50.506Z,1.10
2023-08-12T15:54:20.885Z,1.25
2023-08-12T15:56:51.162Z,1.27
2023-08-12T15:59:23.385Z,1.17
2023-08-12T16:01:54.112Z,0.90
2023-08-12T16:04:27.181Z,1.15
2023-08-12T16:06:58.304Z,1.20
2023-08-12T16:09:28.714Z,1.33
2023-08-12T16:11:59.020Z,1.38
2023-08-12T16:14:29.508Z,1.50
2023-08-12T16:16:59.921Z,1.60
2023-08-12T16:19:32.814Z,1.60
2023-08-12T16:22:03.149Z,1.10
2023-08-12T16:24:33.658Z,1.33
2023-08-12T16:27:06.249Z,1.17
2023-08-12T16:29:36.645Z,1.00
2023-08-12T16:32:07.687Z,0.82
2023-08-12T16:34:40.612Z,1.13
2023-08-12T16:37:21.025Z,1.08
2023-08-12T16:39:52.460Z,1.27
2023-08-12T16:42:23.142Z,1.20
2023-08-12T16:44:54.857Z,1.05
2023-08-12T16:47:25.915Z,1.30
2023-08-12T16:49:58.898Z,1.40
2023-08-12T16:52:29.410Z,1.08
2023-08-12T16:55:00.206Z,1.38
2023-08-12T16:57:30.660Z,1.35
2023-08-12T17:00:04.462Z,1.30
2023-08-12T17:02:34.893Z,1.27
2023-08-12T17:05:09.479Z,1.02
2023-08-12T17:07:39.751Z,1.10
2023-08-12T17:10:10.953Z,1.40
2023-08-12T17:12:41.606Z,1.40
2023-08-12T17:15:13.995Z,1.60
2023-08-12T17:17:44.635Z,1.60
2023-08-12T17:20:18.837Z,1.38
2023-08-12T17:22:49.145Z,1.00
2023-08-12T17:25:19.483Z,1.27
2023-08-12T17:27:49.833Z,1.23
2023-08-12T17:30:20.976Z,1.20
2023-08-12T17:32:51.389Z,1.13
2023-08-12T17:35:24.383Z,1.13
2023-08-12T17:37:54.698Z,1.30
2023-08-12T17:40:26.241Z,1.20
2023-08-12T17:42:56.637Z,1.77
2023-08-12T17:45:27.161Z,1.17
2023-08-12T17:48:01.919Z,1.30
2023-08-12T17:50:35.014Z,1.30
2023-08-12T17:53:05.622Z,1.45
2023-08-12T17:55:36.100Z,1.52
2023-08-12T17:58:06.562Z,1.20
2023-08-12T18:00:36.983Z,1.13
2023-08-12T18:03:07.983Z,1.45
2023-08-12T18:05:41.106Z,1.40
2023-08-12T18:08:11.649Z,1.30
2023-08-12T18:10:42.005Z,1.40
2023-08-12T18:13:12.367Z,1.30
2023-08-12T18:15:43.017Z,1.30
2023-08-12T18:18:13.396Z,1.48
2023-08-12T18:20:46.345Z,1.13
2023-08-12T18:23:16.720Z,1.67
2023-08-12T18:25:47.165Z,1.20
2023-08-12T18:28:18.454Z,1.33
2023-08-12T18:30:48.812Z,1.30
2023-08-12T18:33:19.209Z,1.42
2023-08-12T18:35:52.219Z,1.33
2023-08-12T18:38:22.545Z,1.30
2023-08-12T18:40:53.019Z,1.23
2023-08-12T18:43:23.417Z,1.20
2023-08-12T18:45:54.534Z,1.30
2023-08-12T18:48:24.875Z,1.15
2023-08-12T18:50:57.837Z,1.00
2023-08-12T18:53:28.593Z,1.40
2023-08-12T18:55:58.953Z,1.27
2023-08-12T18:58:29.284Z,1.02
2023-08-12T19:00:59.633Z,1.08
2023-08-12T19:03:30.042Z,1.17
2023-08-12T19:06:06.290Z,1.05
2023-08-12T19:08:36.626Z,1.35
2023-08-12T19:11:07.279Z,0.98
2023-08-12T19:13:38.014Z,0.98
2023-08-12T19:16:08.442Z,0.90
2023-08-12T19:18:38.780Z,1.15
2023-08-12T19:21:11.764Z,0.80
2023-08-12T19:23:42.168Z,0.80
2023-08-12T19:26:12.614Z,0.70
2023-08-12T19:28:42.956Z,0.77
2023-08-12T19:31:13.336Z,0.77
2023-08-12T19:33:44.020Z,0.90
2023-08-12T19:36:16.965Z,0.68
2023-08-12T19:38:47.323Z,0.70
2023-08-12T19:41:17.651Z,0.93
2023-08-12T19:43:47.984Z,0.90
2023-08-12T19:46:18.611Z,0.82
2023-08-12T19:48:49.092Z,0.77
2023-08-12T19:51:22.008Z,1.25
2023-08-12T19:53:52.349Z,0.90
2023-08-12T19:56:22.678Z,1.05
2023-08-12T19:58:53.009Z,0.80
2023-08-12T20:01:23.441Z,0.77
2023-08-12T20:03:54.067Z,0.60
2023-08-12T20:06:27.042Z,1.00
2023-08-12T20:08:57.625Z,1.10
2023-08-12T20:11:28.166Z,0.80
2023-08-12T20:13:58.584Z,1.05
2023-08-12T20:16:28.972Z,0.98
2023-08-12T20:18:59.441Z,0.80
2023-08-12T20:21:32.854Z,0.70
2023-08-12T20:24:03.247Z,1.00
2023-08-12T20:26:33.592Z,1.02
2023-08-12T20:29:03.954Z,1.10
2023-08-12T20:31:34.284Z,0.70
2023-08-12T20:34:04.704Z,0.73
2023-08-12T20:36:37.678Z,0.70
2023-08-12T20:39:11.212Z,0.68
2023-08-12T20:41:41.819Z,0.88
2023-08-12T20:44:12.105Z,0.80
2023-08-12T20:46:42.787Z,0.60
2023-08-12T20:49:13.380Z,0.82
2023-08-12T20:51:46.365Z,0.80
2023-08-12T20:54:16.710Z,0.80
2023-08-12T20:56:47.041Z,0.90
2023-08-12T20:59:17.389Z,0.70
2023-08-12T21:01:48.835Z,0.90
2023-08-12T21:04:19.277Z,0.70
2023-08-12T21:06:57.519Z,1.00
2023-08-12T21:09:28.626Z,0.82
2023-08-12T21:11:59.161Z,0.70
2023-08-12T21:14:29.452Z,0.95
2023-08-12T21:16:59.773Z,1.00
2023-08-12T21:19:30.118Z,0.88
2023-08-12T21:22:03.066Z,1.00
2023-08-12T21:24:33.395Z,1.90
2023-08-12T21:27:04.355Z,1.40
2023-08-12T21:29:34.763Z,1.38
2023-08-12T21:32:05.119Z,0.90
2023-08-12T21:34:35.531Z,0.90
2023-08-12T21:37:08.704Z,1.10
2023-08-12T21:39:39.018Z,1.05
2023-08-12T21:42:10.061Z,1.00
2023-08-12T21:44:40.391Z,1.10
2023-08-12T21:47:10.878Z,0.93
2023-08-12T21:49:41.185Z,1.08
2023-08-12T21:52:14.409Z,1.55
2023-08-12T21:54:46.900Z,0.80
2023-08-12T21:57:17.470Z,1.00
2023-08-12T21:59:47.762Z,1.15
2023-08-12T22:02:27.371Z,1.20
2023-08-12T22:04:58.462Z,1.50
2023-08-12T22:07:31.424Z,1.20
2023-08-12T22:10:02.023Z,1.30
2023-08-12T22:12:32.447Z,1.33
2023-08-12T22:15:02.817Z,1.17
2023-08-12T22:17:33.725Z,1.23
2023-08-12T22:20:05.686Z,1.55
2023-08-12T22:22:38.610Z,1.05
2023-08-12T22:25:10.627Z,1.30
2023-08-12T22:27:41.327Z,1.20
2023-08-12T22:30:13.133Z,1.45
2023-08-12T22:32:43.563Z,1.75
2023-08-12T22:35:13.910Z,1.50
2023-08-12T22:37:46.882Z,1.73
2023-08-12T22:40:17.230Z,1.35
2023-08-12T22:42:47.641Z,1.80
2023-08-12T22:45:18.090Z,1.70
2023-08-12T22:47:48.774Z,1.60
2023-08-12T22:50:19.261Z,1.98
2023-08-12T22:52:52.888Z,1.88
2023-08-12T22:55:23.177Z,1.98
2023-08-12T22:57:53.504Z,1.90
2023-08-12T23:00:23.868Z,1.45
2023-08-12T23:02:54.362Z,1.73
2023-08-12T23:05:24.756Z,2.13
2023-08-12T23:07:57.669Z,1.50
2023-08-12T23:10:27.979Z,1.63
2023-08-12T23:12:58.368Z,1.60
2023-08-12T23:15:28.719Z,1.80
2023-08-12T23:17:59.158Z,1.98
2023-08-12T23:20:29.700Z,1.80
2023-08-12T23:23:02.595Z,1.73
2023-08-12T23:25:32.928Z,2.22
2023-08-12T23:28:03.347Z,2.03
2023-08-12T23:30:33.713Z,2.05
2023-08-12T23:33:04.107Z,2.00
2023-08-12T23:35:34.909Z,1.83
2023-08-12T23:38:08.379Z,2.45
2023-08-12T23:40:38.764Z,1.90
2023-08-12T23:43:09.577Z,2.30
2023-08-12T23:45:40.321Z,2.15
2023-08-12T23:48:11.138Z,1.98
2023-08-12T23:50:41.896Z,1.60
2023-08-12T23:53:14.928Z,1.67
2023-08-12T23:55:45.257Z,1.60
2023-08-12T23:58:15.649Z,1.50
